createdAt,value
2019-02-15T00:00:14.270Z,6.03
2019-02-15T00:02:44.996Z,6.67
2019-02-15T00:05:14.140Z,5.97
2019-02-15T00:07:43.252Z,6.42
2019-02-15T00:10:12.379Z,6.05
2019-02-15T00:12:41.491Z,6.45
2019-02-15T00:15:10.614Z,6.10
2019-02-15T00:17:53.325Z,6.55
2019-02-15T00:20:24.094Z,6.20
2019-02-15T00:22:53.317Z,6.08
2019-02-15T00:25:22.707Z,5.97
2019-02-15T00:27:51.825Z,6.87
2019-02-15T00:30:20.949Z,6.12
2019-02-15T00:32:50.057Z,7.28
2019-02-15T00:35:19.173Z,6.65
2019-02-15T00:37:48.313Z,8.68
2019-02-15T00:40:17.430Z,6.00
2019-02-15T00:42:46.549Z,6.90
2019-02-15T00:45:17.310Z,7.25
2019-02-15T00:47:57.060Z,6.65
2019-02-15T00:50:27.820Z,6.22
2019-02-15T00:52:58.572Z,5.33
2019-02-15T00:55:35.072Z,5.12
2019-02-15T00:58:17.652Z,3.90
2019-02-15T01:01:04.623Z,4.20
2019-02-15T01:03:47.833Z,4.03
2019-02-15T01:06:21.544Z,3.45
2019-02-15T01:09:08.512Z,3.15
2019-02-15T01:11:39.646Z,3.22
2019-02-15T01:14:08.752Z,2.87
2019-02-15T01:16:38.239Z,3.25
2019-02-15T01:19:07.353Z,2.60
2019-02-15T01:21:36.471Z,3.22
2019-02-15T01:24:05.595Z,3.02
2019-02-15T01:26:45.097Z,3.55
2019-02-15T01:29:30.924Z,4.08
2019-02-15T01:32:07.617Z,3.10
2019-02-15T01:34:56.631Z,3.20
2019-02-15T01:37:27.735Z,3.15
2019-02-15T01:40:10.643Z,3.00
2019-02-15T01:42:44.150Z,2.80
2019-02-15T01:45:20.625Z,2.62
2019-02-15T01:47:49.741Z,2.70
2019-02-15T01:50:19.324Z,3.00
2019-02-15T01:52:48.459Z,2.70
2019-02-15T01:55:17.565Z,2.87
2019-02-15T01:57:46.760Z,3.30
2019-02-15T02:00:17.160Z,2.70
2019-02-15T02:02:46.286Z,2.77
2019-02-15T02:05:15.515Z,2.83
2019-02-15T02:07:45.679Z,2.62
2019-02-15T02:10:15.756Z,2.60
2019-02-15T02:12:44.875Z,2.85
2019-02-15T02:15:13.978Z,2.90
2019-02-15T02:17:43.100Z,2.65
2019-02-15T02:20:12.277Z,2.80
2019-02-15T02:22:41.569Z,2.40
2019-02-15T02:25:10.686Z,2.47
2019-02-15T02:27:39.799Z,2.95
2019-02-15T02:30:09.400Z,2.77
2019-02-15T02:32:38.566Z,2.85
2019-02-15T02:35:08.651Z,2.65
2019-02-15T02:37:37.765Z,2.72
2019-02-15T02:40:08.436Z,2.95
2019-02-15T02:42:37.552Z,2.65
2019-02-15T02:45:07.295Z,2.67
2019-02-15T02:47:36.407Z,2.70
2019-02-15T02:50:06.960Z,2.55
2019-02-15T02:52:37.042Z,2.45
2019-02-15T02:55:06.160Z,2.50
2019-02-15T02:57:36.421Z,2.80
2019-02-15T03:00:05.632Z,2.70
2019-02-15T03:02:35.716Z,2.72
2019-02-15T03:05:05.302Z,2.60
2019-02-15T03:07:34.547Z,2.83
2019-02-15T03:10:05.029Z,2.58
2019-02-15T03:12:34.200Z,2.30
2019-02-15T03:15:03.594Z,2.77
2019-02-15T03:17:32.775Z,2.62
2019-02-15T03:20:01.932Z,2.45
2019-02-15T03:22:31.067Z,3.00
2019-02-15T03:25:00.327Z,2.83
2019-02-15T03:27:29.562Z,3.27
2019-02-15T03:29:58.956Z,2.58
2019-02-15T03:32:28.082Z,2.87
2019-02-15T03:34:57.180Z,2.75
2019-02-15T03:37:36.697Z,2.30
2019-02-15T03:40:09.511Z,2.67
2019-02-15T03:42:38.688Z,2.60
2019-02-15T03:45:08.792Z,2.62
2019-02-15T03:47:37.901Z,2.80
2019-02-15T03:50:08.362Z,2.70
2019-02-15T03:52:37.728Z,3.02
2019-02-15T03:55:06.911Z,2.95
2019-02-15T03:57:36.043Z,3.00
2019-02-15T04:00:08.798Z,3.10
2019-02-15T04:02:37.904Z,3.05
2019-02-15T04:05:07.320Z,2.80
2019-02-15T04:07:36.428Z,3.17
2019-02-15T04:10:08.081Z,3.00
2019-02-15T04:12:37.274Z,2.70
2019-02-15T04:15:07.322Z,3.25
2019-02-15T04:17:36.491Z,3.08
2019-02-15T04:20:08.282Z,3.10
2019-02-15T04:22:37.504Z,2.90
2019-02-15T04:25:06.786Z,2.58
2019-02-15T04:27:35.894Z,2.77
2019-02-15T04:30:07.983Z,2.58
2019-02-15T04:32:37.094Z,3.33
2019-02-15T04:35:07.453Z,2.92
2019-02-15T04:37:36.558Z,2.98
2019-02-15T04:40:08.205Z,3.00
2019-02-15T04:42:37.313Z,2.67
2019-02-15T04:45:07.161Z,2.67
2019-02-15T04:47:36.298Z,2.45
2019-02-15T04:50:07.560Z,2.58
2019-02-15T04:52:36.677Z,2.62
2019-02-15T04:55:06.802Z,2.75
2019-02-15T04:57:35.909Z,2.60
2019-02-15T05:00:07.402Z,2.72
2019-02-15T05:02:36.512Z,2.80
2019-02-15T05:05:06.665Z,2.47
2019-02-15T05:07:35.773Z,2.47
2019-02-15T05:10:05.465Z,2.98
2019-02-15T05:12:34.573Z,2.40
2019-02-15T05:15:03.687Z,2.62
2019-02-15T05:17:32.797Z,2.80
2019-02-15T05:20:01.930Z,2.85
2019-02-15T05:22:31.035Z,2.80
2019-02-15T05:25:01.227Z,2.67
2019-02-15T05:27:30.713Z,2.25
2019-02-15T05:29:59.818Z,3.10
2019-02-15T05:32:28.937Z,2.70
2019-02-15T05:34:58.051Z,2.60
2019-02-15T05:37:27.168Z,3.20
2019-02-15T05:39:56.278Z,2.85
2019-02-15T05:42:25.664Z,2.77
2019-02-15T05:45:03.274Z,2.80
2019-02-15T05:47:25.907Z,2.90
2019-02-15T05:49:55.070Z,3.02
2019-02-15T05:52:24.135Z,3.30
2019-02-15T05:54:53.245Z,3.00
2019-02-15T05:57:22.357Z,2.83
2019-02-15T05:59:51.468Z,2.65
2019-02-15T06:02:20.579Z,2.90
2019-02-15T06:04:49.686Z,2.85
2019-02-15T06:07:18.800Z,2.95
2019-02-15T06:09:47.988Z,3.17
2019-02-15T06:12:17.107Z,2.85
2019-02-15T06:14:46.222Z,3.02
2019-02-15T06:17:15.332Z,2.90
2019-02-15T06:19:44.456Z,3.02
2019-02-15T06:22:13.573Z,2.83
2019-02-15T06:24:42.735Z,3.15
2019-02-15T06:27:11.905Z,3.12
2019-02-15T06:29:41.021Z,3.20
2019-02-15T06:32:10.469Z,3.00
2019-02-15T06:34:39.579Z,3.12
2019-02-15T06:37:08.705Z,2.90
2019-02-15T06:39:38.786Z,3.02
2019-02-15T06:42:08.139Z,3.22
2019-02-15T06:44:37.274Z,2.95
2019-02-15T06:47:06.389Z,2.98
2019-02-15T06:49:35.496Z,3.05
2019-02-15T06:52:04.669Z,2.70
2019-02-15T06:54:33.764Z,3.98
2019-02-15T06:57:02.871Z,3.15
2019-02-15T06:59:49.583Z,3.72
2019-02-15T07:02:23.385Z,3.35
2019-02-15T07:07:25.657Z,3.52
2019-02-15T07:09:54.769Z,3.95
2019-02-15T07:12:23.877Z,3.25
2019-02-15T07:14:52.999Z,3.22
2019-02-15T07:17:22.149Z,3.42
2019-02-15T07:19:51.256Z,3.60
2019-02-15T07:22:20.377Z,3.42
2019-02-15T07:24:49.495Z,3.92
2019-02-15T07:27:18.604Z,3.37
2019-02-15T07:29:47.722Z,3.67
2019-02-15T07:32:16.834Z,3.75
2019-02-15T07:34:46.182Z,4.40
2019-02-15T07:37:15.294Z,3.50
2019-02-15T07:39:44.674Z,3.87
2019-02-15T07:42:13.779Z,3.70
2019-02-15T07:44:42.890Z,4.15
2019-02-15T07:47:12.003Z,3.83
2019-02-15T07:49:41.116Z,4.08
2019-02-15T07:52:10.226Z,4.10
2019-02-15T07:54:39.339Z,3.98
2019-02-15T07:57:08.458Z,4.15
2019-02-15T07:59:37.820Z,4.47
2019-02-15T08:02:06.942Z,4.08
2019-02-15T08:04:36.331Z,4.37
2019-02-15T08:07:05.504Z,4.40
2019-02-15T08:09:34.767Z,4.15
2019-02-15T08:12:04.145Z,4.40
2019-02-15T08:14:33.241Z,3.95
2019-02-15T08:17:02.401Z,4.35
2019-02-15T08:19:31.825Z,4.53
2019-02-15T08:22:00.978Z,3.80
2019-02-15T08:24:30.117Z,4.08
2019-02-15T08:26:59.659Z,4.15
2019-02-15T08:29:28.787Z,4.17
2019-02-15T08:31:58.000Z,3.80
2019-02-15T08:34:27.434Z,3.85
2019-02-15T08:36:56.788Z,4.10
2019-02-15T08:39:26.178Z,4.50
2019-02-15T08:42:01.390Z,4.50
2019-02-15T08:44:26.151Z,3.98
2019-02-15T08:46:55.309Z,4.12
2019-02-15T08:49:24.622Z,4.05
2019-02-15T08:51:53.770Z,3.85
2019-02-15T08:54:23.206Z,3.80
2019-02-15T08:56:52.331Z,3.65
2019-02-15T08:59:21.451Z,4.12
2019-02-15T09:02:04.009Z,4.03
2019-02-15T09:04:33.157Z,3.90
2019-02-15T09:07:02.525Z,3.90
2019-02-15T09:09:31.689Z,3.62
2019-02-15T09:12:00.816Z,3.62
2019-02-15T09:14:29.958Z,3.45
2019-02-15T09:16:59.093Z,4.15
2019-02-15T09:19:28.233Z,3.40
2019-02-15T09:21:57.360Z,3.20
2019-02-15T09:24:26.523Z,3.25
2019-02-15T09:26:56.231Z,3.15
2019-02-15T09:29:25.387Z,3.00
2019-02-15T09:31:54.534Z,3.42
2019-02-15T09:34:23.684Z,2.80
2019-02-15T09:36:52.854Z,3.17
2019-02-15T09:39:21.966Z,3.40
2019-02-15T09:41:51.094Z,2.67
2019-02-15T09:44:21.312Z,2.90
2019-02-15T09:46:50.629Z,2.77
2019-02-15T09:49:20.574Z,2.45
2019-02-15T09:51:50.685Z,2.92
2019-02-15T09:54:19.822Z,2.72
2019-02-15T09:56:48.947Z,2.77
2019-02-15T09:59:18.093Z,2.58
2019-02-15T10:01:47.224Z,3.00
2019-02-15T10:04:16.366Z,2.98
2019-02-15T10:06:45.766Z,2.90
2019-02-15T10:09:14.906Z,2.58
2019-02-15T10:11:44.071Z,2.95
2019-02-15T10:14:13.255Z,3.10
2019-02-15T10:16:43.616Z,3.15
2019-02-15T10:19:21.997Z,3.25
2019-02-15T10:21:43.822Z,2.98
2019-02-15T10:24:13.211Z,3.10
2019-02-15T10:26:42.356Z,3.45
2019-02-15T10:29:11.513Z,3.60
2019-02-15T10:31:40.654Z,2.90
2019-02-15T10:34:09.814Z,3.35
2019-02-15T10:36:38.948Z,2.90
2019-02-15T10:39:08.088Z,3.10
2019-02-15T10:41:37.552Z,3.10
2019-02-15T10:44:06.746Z,3.08
2019-02-15T10:46:37.867Z,3.20
2019-02-15T10:49:06.747Z,3.17
2019-02-15T10:51:35.881Z,3.87
2019-02-15T10:54:05.065Z,3.37
2019-02-15T10:56:34.220Z,3.05
2019-02-15T10:59:04.343Z,3.50
2019-02-15T11:01:33.540Z,3.45
2019-02-15T11:04:02.753Z,3.05
2019-02-15T11:06:31.898Z,3.35
2019-02-15T11:09:01.026Z,3.65
2019-02-15T11:11:31.784Z,3.25
2019-02-15T11:14:00.931Z,3.67
2019-02-15T11:16:30.326Z,3.55
2019-02-15T11:18:59.467Z,3.25
2019-02-15T11:21:28.618Z,3.33
2019-02-15T11:23:57.752Z,3.33
2019-02-15T11:26:27.358Z,3.58
2019-02-15T11:28:56.573Z,3.33
2019-02-15T11:31:25.722Z,3.80
2019-02-15T11:33:55.871Z,3.90
2019-02-15T11:36:25.251Z,3.87
2019-02-15T11:38:54.391Z,3.77
2019-02-15T11:41:23.562Z,3.33
2019-02-15T11:43:52.780Z,3.75
2019-02-15T11:46:21.933Z,3.40
2019-02-15T11:48:51.073Z,3.62
2019-02-15T11:51:20.217Z,3.15
2019-02-15T11:53:49.379Z,3.17
2019-02-15T11:56:18.517Z,3.47
2019-02-15T11:58:47.773Z,3.15
2019-02-15T12:01:16.927Z,2.70
2019-02-15T12:03:46.306Z,3.10
2019-02-15T12:06:15.461Z,3.40
2019-02-15T12:08:44.592Z,3.35
2019-02-15T12:11:13.727Z,3.35
2019-02-15T12:13:42.871Z,2.80
2019-02-15T12:16:12.086Z,3.10
2019-02-15T12:18:41.215Z,3.08
2019-02-15T12:21:10.363Z,3.27
2019-02-15T12:23:39.764Z,2.70
2019-02-15T12:26:08.881Z,3.00
2019-02-15T12:28:38.036Z,2.70
2019-02-15T12:31:07.172Z,2.87
2019-02-15T12:33:36.310Z,2.92
2019-02-15T12:36:05.450Z,3.02
2019-02-15T12:38:34.588Z,3.00
2019-02-15T12:41:03.808Z,2.52
2019-02-15T12:43:33.006Z,3.00
2019-02-15T12:46:02.397Z,3.52
2019-02-15T12:48:31.537Z,2.92
2019-02-15T12:51:00.667Z,2.30
2019-02-15T12:53:29.806Z,2.50
2019-02-15T12:55:58.932Z,2.45
2019-02-15T12:58:28.299Z,2.50
2019-02-15T13:00:57.698Z,2.27
2019-02-15T13:03:26.855Z,2.85
2019-02-15T13:05:55.990Z,2.85
2019-02-15T13:08:25.137Z,2.40
2019-02-15T13:10:54.312Z,2.90
2019-02-15T13:13:23.498Z,3.50
2019-02-15T13:15:52.629Z,2.90
2019-02-15T13:18:21.778Z,2.75
2019-02-15T13:20:50.911Z,2.75
2019-02-15T13:23:20.214Z,2.52
2019-02-15T13:25:49.343Z,2.60
2019-02-15T13:28:18.589Z,2.52
2019-02-15T13:30:47.705Z,2.80
2019-02-15T13:33:16.848Z,2.85
2019-02-15T13:35:45.985Z,3.02
2019-02-15T13:38:15.378Z,2.67
2019-02-15T13:40:44.945Z,2.33
2019-02-15T13:43:14.348Z,2.70
2019-02-15T13:45:43.480Z,2.58
2019-02-15T13:48:12.620Z,2.42
2019-02-15T13:50:41.748Z,2.67
2019-02-15T13:53:10.873Z,2.33
2019-02-15T13:55:40.018Z,2.20
2019-02-15T13:58:09.435Z,2.60
2019-02-15T14:00:39.435Z,2.20
2019-02-15T14:03:08.594Z,2.92
2019-02-15T14:05:38.696Z,2.30
2019-02-15T14:08:07.842Z,2.27
2019-02-15T14:10:36.973Z,2.40
2019-02-15T14:13:06.238Z,2.37
2019-02-15T14:15:35.381Z,2.05
2019-02-15T14:18:04.536Z,2.42
2019-02-15T14:20:33.679Z,2.52
2019-02-15T14:23:02.851Z,2.45
2019-02-15T14:25:31.988Z,2.37
2019-02-15T14:28:01.133Z,2.47
2019-02-15T14:30:30.270Z,2.75
2019-02-15T14:32:59.416Z,2.50
2019-02-15T14:35:28.671Z,2.90
2019-02-15T14:37:58.073Z,2.65
2019-02-15T14:40:27.454Z,2.80
2019-02-15T14:42:56.829Z,3.08
2019-02-15T14:45:25.980Z,2.95
2019-02-15T14:47:55.512Z,3.27
2019-02-15T14:50:24.856Z,2.47
2019-02-15T14:52:53.974Z,3.15
2019-02-15T14:55:23.103Z,3.52
2019-02-15T14:57:52.473Z,3.17
2019-02-15T15:00:21.593Z,3.30
2019-02-15T15:02:50.720Z,3.10
2019-02-15T15:05:20.172Z,3.05
2019-02-15T15:07:49.292Z,3.00
2019-02-15T15:10:18.427Z,3.17
2019-02-15T15:12:48.071Z,3.10
2019-02-15T15:15:17.181Z,2.40
2019-02-15T15:17:46.293Z,2.85
2019-02-15T15:20:15.411Z,2.70
2019-02-15T15:22:44.529Z,2.70
2019-02-15T15:25:15.336Z,2.67
2019-02-15T15:27:44.460Z,2.98
2019-02-15T15:30:14.815Z,3.67
2019-02-15T15:32:44.002Z,3.55
2019-02-15T15:35:13.118Z,2.05
2019-02-15T15:37:42.240Z,2.25
2019-02-15T15:40:14.921Z,2.20
2019-02-15T15:42:44.082Z,2.27
2019-02-15T15:45:13.252Z,2.60
2019-02-15T15:47:42.386Z,2.92
2019-02-15T15:50:12.041Z,2.20
2019-02-15T15:52:41.163Z,2.25
2019-02-15T15:55:11.516Z,2.22
2019-02-15T15:57:40.640Z,2.00
2019-02-15T16:00:12.586Z,3.05
2019-02-15T16:02:42.776Z,2.52
2019-02-15T16:05:11.897Z,2.50
2019-02-15T16:07:43.269Z,2.45
2019-02-15T16:10:13.057Z,2.72
2019-02-15T16:12:42.263Z,1.80
2019-02-15T16:15:12.521Z,2.08
2019-02-15T16:17:42.052Z,1.90
2019-02-15T16:20:11.906Z,2.17
2019-02-15T16:22:41.032Z,2.52
2019-02-15T16:25:10.819Z,2.22
2019-02-15T16:27:39.939Z,1.90
2019-02-15T16:30:12.369Z,2.37
2019-02-15T16:32:41.737Z,2.50
2019-02-15T16:35:10.840Z,2.17
2019-02-15T16:37:39.948Z,2.42
2019-02-15T16:40:12.095Z,2.62
2019-02-15T16:42:41.248Z,2.15
2019-02-15T16:45:12.605Z,2.30
2019-02-15T16:47:41.723Z,1.90
2019-02-15T16:50:11.178Z,2.05
2019-02-15T16:52:40.299Z,2.30
2019-02-15T16:55:12.830Z,2.00
2019-02-15T16:57:40.733Z,2.50
2019-02-15T17:00:11.566Z,2.55
2019-02-15T17:02:40.749Z,2.47
2019-02-15T17:05:09.875Z,2.83
2019-02-15T17:07:38.999Z,2.52
2019-02-15T17:10:10.029Z,3.10
2019-02-15T17:12:39.380Z,2.58
2019-02-15T17:15:14.122Z,3.12
2019-02-15T17:17:43.241Z,3.50
2019-02-15T17:20:12.365Z,3.20
2019-02-15T17:22:41.720Z,3.92
2019-02-15T17:25:14.057Z,4.17
2019-02-15T17:27:43.424Z,4.20
2019-02-15T17:30:12.617Z,4.35
2019-02-15T17:32:41.751Z,4.12
2019-02-15T17:35:11.762Z,4.90
2019-02-15T17:37:40.946Z,5.25
2019-02-15T17:40:16.803Z,5.12
2019-02-15T17:42:46.157Z,5.87
2019-02-15T17:45:15.337Z,5.70
2019-02-15T17:47:44.742Z,5.10
2019-02-15T17:50:13.873Z,4.87
2019-02-15T17:52:43.398Z,4.90
2019-02-15T17:55:13.057Z,5.40
2019-02-15T17:57:42.207Z,5.65
2019-02-15T18:00:13.187Z,6.05
2019-02-15T18:02:42.380Z,6.22
2019-02-15T18:05:17.653Z,6.83
2019-02-15T18:07:48.615Z,5.78
2019-02-15T18:10:18.702Z,5.17
2019-02-15T18:12:47.827Z,5.10
2019-02-15T18:15:16.942Z,5.37
2019-02-15T18:17:46.064Z,5.50
2019-02-15T18:20:15.188Z,6.53
2019-02-15T18:22:44.321Z,8.55
2019-02-15T18:25:13.560Z,6.45
2019-02-15T18:27:42.922Z,6.83
2019-02-15T18:30:14.321Z,5.55
2019-02-15T18:32:44.432Z,4.03
2019-02-15T18:35:13.780Z,4.45
2019-02-15T18:37:42.981Z,4.35
2019-02-15T18:40:12.276Z,4.97
2019-02-15T18:42:41.397Z,4.92
2019-02-15T18:45:15.396Z,4.58
2019-02-15T18:47:44.761Z,4.72
2019-02-15T18:50:13.883Z,4.33
2019-02-15T18:52:44.215Z,5.50
2019-02-15T18:55:13.343Z,5.70
2019-02-15T18:57:42.468Z,6.00
2019-02-15T19:00:16.541Z,4.95
2019-02-15T19:02:50.064Z,4.30
2019-02-15T19:05:19.417Z,3.92
2019-02-15T19:07:48.542Z,3.83
2019-02-15T19:10:20.018Z,3.95
2019-02-15T19:12:49.142Z,3.77
2019-02-15T19:15:19.357Z,3.62
2019-02-15T19:17:49.454Z,4.42
2019-02-15T19:20:18.566Z,4.40
2019-02-15T19:22:47.677Z,3.30
2019-02-15T19:25:19.395Z,2.95
2019-02-15T19:27:48.573Z,2.42
2019-02-15T19:30:20.500Z,2.58
2019-02-15T19:32:49.601Z,2.45
2019-02-15T19:35:18.955Z,3.08
2019-02-15T19:37:48.079Z,3.67
2019-02-15T19:40:19.043Z,2.60
2019-02-15T19:42:50.254Z,2.30
2019-02-15T19:45:19.365Z,2.60
2019-02-15T19:47:48.491Z,2.62
2019-02-15T19:50:18.813Z,2.47
2019-02-15T19:52:48.905Z,2.37
2019-02-15T19:55:18.025Z,2.42
2019-02-15T19:57:47.142Z,2.30
2019-02-15T20:00:18.971Z,2.58
2019-02-15T20:02:48.197Z,2.70
2019-02-15T20:05:17.438Z,3.77
2019-02-15T20:07:46.553Z,3.12
2019-02-15T20:10:21.922Z,3.08
2019-02-15T20:12:51.061Z,3.72
2019-02-15T20:15:20.194Z,2.98
2019-02-15T20:17:49.314Z,3.10
2019-02-15T20:20:18.496Z,2.62
2019-02-15T20:22:47.615Z,2.83
2019-02-15T20:25:16.730Z,2.60
2019-02-15T20:27:45.854Z,2.60
2019-02-15T20:30:22.640Z,2.40
2019-02-15T20:32:51.836Z,2.70
2019-02-15T20:35:21.922Z,3.00
2019-02-15T20:37:51.046Z,3.00
2019-02-15T20:40:20.167Z,2.83
2019-02-15T20:42:49.277Z,3.27
2019-02-15T20:45:24.465Z,2.60
2019-02-15T20:47:53.591Z,2.50
2019-02-15T20:50:22.702Z,2.50
2019-02-15T20:52:51.826Z,2.40
2019-02-15T20:55:21.303Z,2.50
2019-02-15T20:57:50.425Z,3.00
2019-02-15T21:00:28.549Z,2.98
2019-02-15T21:02:57.682Z,3.27
2019-02-15T21:05:26.799Z,2.62
2019-02-15T21:07:55.913Z,2.95
2019-02-15T21:10:25.038Z,3.25
2019-02-15T21:12:54.161Z,3.42
2019-02-15T21:15:24.337Z,2.80
2019-02-15T21:17:53.787Z,3.27
2019-02-15T21:20:24.572Z,3.17
2019-02-15T21:22:53.748Z,3.27
2019-02-15T21:25:22.868Z,3.10
2019-02-15T21:27:52.235Z,3.27
2019-02-15T21:30:21.356Z,2.92
2019-02-15T21:32:50.780Z,3.17
2019-02-15T21:35:20.026Z,3.58
2019-02-15T21:37:49.567Z,3.30
2019-02-15T21:40:18.804Z,3.77
2019-02-15T21:42:47.929Z,3.60
2019-02-15T21:45:17.052Z,4.30
2019-02-15T21:47:46.214Z,4.03
2019-02-15T21:50:17.428Z,4.50
2019-02-15T21:52:46.494Z,4.20
2019-02-15T21:55:16.311Z,4.05
2019-02-15T21:57:45.446Z,4.05
2019-02-15T22:00:22.896Z,4.00
2019-02-15T22:02:52.118Z,4.47
2019-02-15T22:05:21.242Z,4.22
2019-02-15T22:07:50.442Z,4.17
2019-02-15T22:10:19.553Z,3.92
2019-02-15T22:12:48.926Z,4.55
2019-02-15T22:15:18.247Z,3.72
2019-02-15T22:17:47.620Z,4.87
2019-02-15T22:20:25.996Z,4.75
2019-02-15T22:22:48.257Z,4.40
2019-02-15T22:25:17.374Z,4.10
2019-02-15T22:27:47.070Z,4.20
2019-02-15T22:30:18.501Z,3.90
2019-02-15T22:32:48.207Z,3.83
2019-02-15T22:35:18.380Z,4.33
2019-02-15T22:37:47.734Z,3.92
2019-02-15T22:40:31.099Z,4.35
2019-02-15T22:43:06.054Z,3.95
2019-02-15T22:45:35.167Z,3.90
2019-02-15T22:48:04.424Z,4.00
2019-02-15T22:50:36.011Z,4.33
2019-02-15T22:53:04.452Z,4.00
2019-02-15T22:55:33.572Z,3.83
2019-02-15T22:58:04.546Z,4.67
2019-02-15T23:00:47.049Z,4.05
2019-02-15T23:03:18.122Z,3.83
2019-02-15T23:05:47.246Z,3.87
2019-02-15T23:08:16.369Z,4.22
2019-02-15T23:10:45.486Z,4.35
2019-02-15T23:13:14.613Z,4.17
2019-02-15T23:15:43.956Z,4.40
2019-02-15T23:18:13.392Z,4.95
2019-02-15T23:20:45.260Z,4.58
2019-02-15T23:23:13.325Z,4.47
2019-02-15T23:25:42.440Z,4.47
2019-02-15T23:28:11.580Z,4.53
2019-02-15T23:30:40.763Z,4.80
2019-02-15T23:33:10.123Z,4.95
2019-02-15T23:35:39.241Z,4.83
2019-02-15T23:38:08.361Z,5.15
2019-02-15T23:40:37.499Z,5.10
2019-02-15T23:43:06.604Z,4.12
2019-02-15T23:45:35.782Z,4.30
2019-02-15T23:48:04.835Z,4.55
2019-02-15T23:50:33.954Z,4.97
2019-02-15T23:53:03.078Z,4.97
2019-02-15T23:55:32.197Z,4.85
2019-02-15T23:58:01.315Z,5.12
